createdAt,value
2023-01-27T00:04:31.344Z,79.87
2023-01-27T00:09:53.109Z,80.21
2023-01-27T00:15:16.728Z,79.62
2023-01-27T00:20:57.029Z,80.26
2023-01-27T00:26:19.973Z,79.09
2023-01-27T00:32:00.200Z,80.43
2023-01-27T00:37:21.964Z,79.27
2023-01-27T00:42:44.095Z,79.93
2023-01-27T00:48:05.885Z,80.74
2023-01-27T00:53:27.636Z,79.91
2023-01-27T00:58:49.385Z,79.85
2023-01-27T01:04:11.212Z,79.65
2023-01-27T01:09:32.989Z,80.50
2023-01-27T01:14:54.746Z,81.23
2023-01-27T01:20:16.644Z,82.41
2023-01-27T01:25:38.573Z,81.63
2023-01-27T01:31:08.487Z,82.54
2023-01-27T01:36:30.383Z,82.06
2023-01-27T01:41:52.140Z,81.90
2023-01-27T01:47:17.925Z,80.93
2023-01-27T01:52:40.285Z,81.04
2023-01-27T01:58:02.945Z,82.00
2023-01-27T02:03:26.033Z,81.02
2023-01-27T02:08:50.550Z,80.23
2023-01-27T02:14:14.735Z,79.90
2023-01-27T02:20:03.292Z,78.24
2023-01-27T02:25:24.962Z,79.00
2023-01-27T02:30:46.737Z,78.57
2023-01-27T02:36:15.614Z,78.69
2023-01-27T02:41:40.829Z,79.12
2023-01-27T02:47:02.565Z,78.95
2023-01-27T02:52:25.326Z,77.65
2023-01-27T02:57:47.068Z,77.73
2023-01-27T03:03:08.831Z,77.25
2023-01-27T03:08:30.582Z,77.00
2023-01-27T03:13:52.290Z,78.24
2023-01-27T03:19:14.010Z,78.31
2023-01-27T03:24:38.005Z,77.98
2023-01-27T03:30:01.196Z,78.41
2023-01-27T03:35:34.364Z,78.55
2023-01-27T03:41:14.875Z,78.44
2023-01-27T03:46:36.688Z,78.45
2023-01-27T03:51:58.947Z,78.29
2023-01-27T03:57:20.643Z,76.85
2023-01-27T04:03:00.829Z,76.98
2023-01-27T04:08:22.643Z,77.54
2023-01-27T04:13:44.678Z,78.05
2023-01-27T04:19:08.883Z,77.66
2023-01-27T04:24:30.983Z,77.06
2023-01-27T04:29:53.264Z,77.62
2023-01-27T04:35:15.183Z,78.51
2023-01-27T04:40:37.048Z,78.00
2023-01-27T04:45:58.904Z,77.86
2023-01-27T04:51:20.736Z,77.41
2023-01-27T04:56:58.025Z,78.27
2023-01-27T05:02:19.758Z,79.40
2023-01-27T05:07:41.529Z,78.52
2023-01-27T05:13:03.280Z,78.65
2023-01-27T05:18:24.976Z,77.60
2023-01-27T05:23:46.849Z,78.61
2023-01-27T05:29:09.421Z,78.52
2023-01-27T05:34:31.160Z,79.04
2023-01-27T05:39:52.872Z,78.65
2023-01-27T05:45:15.091Z,79.96
2023-01-27T05:50:36.889Z,80.52
2023-01-27T05:55:58.706Z,80.67
2023-01-27T06:01:22.817Z,80.18
2023-01-27T06:06:44.532Z,80.17
2023-01-27T06:12:06.575Z,80.40
2023-01-27T06:17:28.353Z,78.56
2023-01-27T06:22:50.564Z,78.88
2023-01-27T06:28:27.878Z,77.71
2023-01-27T06:33:51.364Z,78.06
2023-01-27T06:39:13.188Z,80.05
2023-01-27T06:44:34.967Z,79.69
2023-01-27T06:49:56.659Z,79.44
2023-01-27T06:55:19.404Z,80.55
2023-01-27T07:00:41.646Z,79.46
2023-01-27T07:06:03.519Z,79.92
2023-01-27T07:11:25.359Z,79.50
2023-01-27T07:16:47.656Z,79.75
2023-01-27T07:22:09.383Z,78.98
2023-01-27T07:27:31.088Z,79.47
2023-01-27T07:32:54.494Z,79.21
2023-01-27T07:38:16.264Z,80.06
2023-01-27T07:43:37.971Z,79.34
2023-01-27T07:48:59.709Z,79.62
2023-01-27T07:54:21.508Z,79.21
2023-01-27T07:59:43.225Z,78.99
2023-01-27T08:05:05.189Z,78.78
2023-01-27T08:10:27.026Z,78.04
2023-01-27T08:15:55.660Z,78.33
2023-01-27T08:21:17.394Z,77.14
2023-01-27T08:26:39.143Z,77.93
2023-01-27T08:32:00.875Z,77.12
2023-01-27T08:37:22.583Z,77.71
2023-01-27T08:42:44.367Z,77.86
2023-01-27T08:48:06.810Z,76.62
2023-01-27T08:53:29.169Z,75.79
2023-01-27T08:58:52.388Z,75.86
2023-01-27T09:04:14.229Z,75.05
2023-01-27T09:09:35.942Z,75.39
2023-01-27T09:14:58.246Z,75.36
2023-01-27T09:20:20.126Z,75.21
2023-01-27T09:25:41.921Z,75.45
2023-01-27T09:31:03.743Z,74.98
2023-01-27T09:36:27.411Z,74.12
2023-01-27T09:42:02.861Z,74.07
2023-01-27T09:47:33.490Z,75.61
2023-01-27T09:53:17.745Z,75.05
2023-01-27T09:59:08.248Z,75.15
2023-01-27T10:04:49.976Z,75.57
2023-01-27T10:10:33.266Z,74.90
2023-01-27T10:16:19.458Z,75.01
2023-01-27T10:22:13.481Z,73.54
2023-01-27T10:27:43.206Z,74.03
2023-01-27T10:33:14.131Z,72.98
2023-01-27T10:38:38.870Z,73.09
2023-01-27T10:44:25.449Z,73.72
2023-01-27T10:49:53.666Z,73.25
2023-01-27T10:55:21.928Z,73.72
2023-01-27T11:06:35.376Z,72.34
2023-01-27T11:12:02.742Z,72.85
2023-01-27T11:17:32.062Z,72.85
2023-01-27T11:23:00.018Z,72.43
2023-01-27T11:28:21.660Z,73.29
2023-01-27T11:34:11.384Z,72.79
2023-01-27T11:39:33.847Z,72.54
2023-01-27T11:44:57.580Z,71.66
2023-01-27T11:50:21.934Z,72.46
2023-01-27T11:55:50.324Z,72.41
2023-01-27T12:01:19.962Z,71.91
2023-01-27T12:06:48.983Z,72.55
2023-01-27T12:12:14.971Z,72.81
2023-01-27T12:17:47.592Z,72.05
2023-01-27T12:23:32.078Z,72.60
2023-01-27T12:28:54.857Z,73.00
2023-01-27T12:34:34.000Z,72.31
2023-01-27T12:40:01.608Z,72.80
2023-01-27T12:45:26.866Z,73.19
2023-01-27T12:50:51.321Z,73.56
2023-01-27T12:56:16.427Z,73.56
2023-01-27T13:01:41.257Z,73.37
2023-01-27T13:07:02.951Z,74.04
2023-01-27T13:12:30.801Z,74.19
2023-01-27T13:17:54.932Z,74.32
2023-01-27T13:23:31.325Z,73.19
2023-01-27T13:29:15.484Z,73.64
2023-01-27T13:34:53.040Z,74.32
2023-01-27T13:40:22.518Z,73.67
2023-01-27T13:45:57.475Z,74.73
2023-01-27T13:51:25.255Z,74.70
2023-01-27T13:57:07.711Z,74.37
2023-01-27T14:03:07.547Z,75.99
2023-01-27T14:08:49.459Z,74.89
2023-01-27T14:14:37.296Z,75.78
2023-01-27T14:20:18.166Z,75.40
2023-01-27T14:26:01.592Z,75.64
2023-01-27T14:31:47.507Z,75.57
2023-01-27T14:37:34.203Z,75.34
2023-01-27T14:42:55.852Z,76.01
2023-01-27T14:48:23.666Z,75.00
2023-01-27T14:54:13.673Z,74.39
2023-01-27T14:59:44.299Z,74.59
2023-01-27T15:05:27.514Z,75.02
2023-01-27T15:11:25.293Z,75.71
2023-01-27T15:17:05.678Z,74.62
2023-01-27T15:22:51.982Z,75.38
2023-01-27T15:28:17.985Z,75.39
2023-01-27T15:33:53.438Z,75.51
2023-01-27T15:39:20.192Z,75.31
2023-01-27T15:45:01.589Z,75.27
2023-01-27T15:50:27.516Z,75.41
2023-01-27T15:55:53.366Z,74.00
2023-01-27T16:01:32.027Z,75.05
2023-01-27T16:07:02.953Z,75.29
2023-01-27T16:12:26.931Z,74.34
2023-01-27T16:18:06.888Z,74.75
2023-01-27T16:23:44.701Z,74.65
2023-01-27T16:29:29.558Z,74.96
2023-01-27T16:35:02.060Z,74.85
2023-01-27T16:40:24.491Z,73.38
2023-01-27T16:45:51.925Z,74.49
2023-01-27T16:51:18.639Z,73.48
2023-01-27T16:56:40.721Z,72.94
2023-01-27T17:02:19.642Z,72.93
2023-01-27T17:07:41.475Z,73.75
2023-01-27T17:13:03.275Z,73.02
2023-01-27T17:18:25.881Z,73.35
2023-01-27T17:23:49.330Z,73.07
2023-01-27T17:29:20.978Z,74.74
2023-01-27T17:34:42.816Z,73.84
2023-01-27T17:40:15.317Z,74.03
2023-01-27T17:45:37.925Z,73.60
2023-01-27T17:50:59.744Z,74.01
2023-01-27T17:56:27.044Z,74.27
2023-01-27T18:01:53.483Z,73.19
2023-01-27T18:07:15.636Z,75.03
2023-01-27T18:12:37.945Z,74.04
2023-01-27T18:18:19.916Z,73.97
2023-01-27T18:23:56.409Z,73.55
2023-01-27T18:29:37.337Z,74.03
2023-01-27T18:34:59.767Z,74.19
2023-01-27T18:40:30.361Z,74.45
2023-01-27T18:45:52.179Z,73.67
2023-01-27T18:51:15.507Z,73.57
2023-01-27T18:56:37.318Z,74.88
2023-01-27T19:02:00.292Z,73.93
2023-01-27T19:07:22.150Z,73.24
2023-01-27T19:12:44.045Z,73.46
2023-01-27T19:18:20.847Z,72.65
2023-01-27T19:23:44.455Z,73.19
2023-01-27T19:29:06.409Z,72.40
2023-01-27T19:34:28.161Z,72.47
2023-01-27T19:39:49.963Z,72.36
2023-01-27T19:45:14.913Z,73.32
2023-01-27T19:50:36.887Z,73.19
2023-01-27T19:55:59.197Z,73.01
2023-01-27T20:01:24.997Z,73.43
2023-01-27T20:06:46.861Z,72.95
2023-01-27T20:12:14.428Z,74.07
2023-01-27T20:17:37.762Z,73.97
2023-01-27T20:22:59.615Z,73.68
2023-01-27T20:28:21.879Z,73.67
2023-01-27T20:33:43.884Z,74.50
2023-01-27T20:39:05.682Z,74.79
2023-01-27T20:44:27.537Z,74.14
2023-01-27T20:49:50.409Z,74.89
2023-01-27T20:55:13.727Z,73.89
2023-01-27T21:00:35.622Z,74.04
2023-01-27T21:05:57.371Z,74.34
2023-01-27T21:11:21.246Z,74.71
2023-01-27T21:16:43.078Z,73.79
2023-01-27T21:22:04.869Z,74.74
2023-01-27T21:27:27.132Z,74.26
2023-01-27T21:32:49.007Z,74.46
2023-01-27T21:38:10.886Z,74.75
2023-01-27T21:43:55.987Z,73.55
2023-01-27T21:49:17.743Z,74.86
2023-01-27T21:54:39.671Z,73.63
2023-01-27T22:00:01.676Z,73.73
2023-01-27T22:05:24.630Z,74.89
2023-01-27T22:10:46.375Z,74.11
2023-01-27T22:16:13.922Z,73.32
2023-01-27T22:21:35.646Z,73.29
2023-01-27T22:26:57.381Z,74.15
2023-01-27T22:32:19.149Z,73.62
2023-01-27T22:37:41.999Z,73.36
2023-01-27T22:43:09.232Z,73.75
2023-01-27T22:48:31.066Z,73.94
2023-01-27T22:53:52.776Z,73.36
2023-01-27T22:59:14.677Z,73.68
2023-01-27T23:04:36.408Z,73.07
2023-01-27T23:09:58.209Z,73.66
2023-01-27T23:15:19.907Z,72.03
2023-01-27T23:20:42.411Z,72.54
2023-01-27T23:26:08.759Z,72.35
2023-01-27T23:31:30.605Z,73.04
2023-01-27T23:36:52.395Z,73.35
2023-01-27T23:42:15.353Z,73.80
2023-01-27T23:47:37.146Z,73.05
2023-01-27T23:52:58.892Z,73.28
2023-01-27T23:58:20.879Z,72.97
